Time;durP1;ratioP1;P1;durP2;ratioP2;P2;SDS_P1;SDS_P2;PMS_P1;PMS_P2;Temp;Humidity;BMP_temperature;BMP_pressure;BME280_temperature;BME280_humidity;BME280_pressure;Samples;Min_cycle;Max_cycle;Signal;HPM_P1;HPM_P2
2022/06/11 00:00:20;;;;;;;7;6;;;;;;;11.31;76.45508;95967.14;;;;
2022/06/11 00:01:21;;;;;;;7;6;;;;;;;11.31;76.45508;95967.14;;;;
2022/06/11 00:02:25;;;;;;;7;6;;;;;;;11.31;76.45508;95967.14;;;;
2022/06/11 00:03:26;;;;;;;7;6;;;;;;;11.31;76.45508;95967.14;;;;
2022/06/11 00:04:26;;;;;;;7;6;;;;;;;11.31;76.45508;95967.14;;;;
2022/06/11 00:05:31;;;;;;;6.55;5.849999;;;;;;;11.22;76.69727;95965.26;;;;
2022/06/11 00:06:32;;;;;;;6.55;5.849999;;;;;;;11.22;76.69727;95965.26;;;;
2022/06/11 00:07:36;;;;;;;6.55;5.849999;;;;;;;11.22;76.69727;95965.26;;;;
2022/06/11 00:08:38;;;;;;;6.55;5.849999;;;;;;;11.22;76.69727;95965.26;;;;
2022/06/11 00:09:39;;;;;;;6.55;5.849999;;;;;;;11.22;76.69727;95965.26;;;;
2022/06/11 00:10:41;;;;;;;6.55;5.849999;;;;;;;11.22;76.69727;95965.26;;;;
2022/06/11 00:11:42;;;;;;;6.55;5.849999;;;;;;;11.22;76.69727;95965.26;;;;
2022/06/11 00:12:42;;;;;;;6.55;5.849999;;;;;;;11.22;76.69727;95965.26;;;;
2022/06/11 00:13:43;;;;;;;6.55;5.849999;;;;;;;11.22;76.69727;95965.26;;;;
2022/06/11 00:14:44;;;;;;;6.55;5.849999;;;;;;;11.22;76.69727;95965.26;;;;
2022/06/11 00:15:47;;;;;;;6.55;5.849999;;;;;;;11.22;76.69727;95965.26;;;;
2022/06/11 00:16:49;;;;;;;7.199999;5.5;;;;;;;11.19;76.96094;95959.45;;;;
2022/06/11 00:17:52;;;;;;;7.199999;5.5;;;;;;;11.19;76.96094;95959.45;;;;
2022/06/11 00:18:54;;;;;;;7.199999;5.5;;;;;;;11.19;76.96094;95959.45;;;;
2022/06/11 00:19:56;;;;;;;7.199999;5.5;;;;;;;11.19;76.96094;95959.45;;;;
2022/06/11 00:20:57;;;;;;;7.199999;5.5;;;;;;;11.19;76.96094;95959.45;;;;
2022/06/11 00:21:57;;;;;;;7.199999;5.5;;;;;;;11.19;76.96094;95959.45;;;;
2022/06/11 00:22:58;;;;;;;7.199999;5.5;;;;;;;11.19;76.96094;95959.45;;;;
2022/06/11 00:23:59;;;;;;;7.199999;5.5;;;;;;;11.19;76.96094;95959.45;;;;
2022/06/11 00:25:00;;;;;;;7.199999;5.5;;;;;;;11.19;76.96094;95959.45;;;;
2022/06/11 00:26:01;;;;;;;7.199999;5.5;;;;;;;11.19;76.96094;95959.45;;;;
2022/06/11 00:27:03;;;;;;;6.5;5.799999;;;;;;;11.1;77.1084;95959.72;;;;
2022/06/11 00:28:06;;;;;;;6.5;5.799999;;;;;;;11.1;77.1084;95959.72;;;;
2022/06/11 00:29:08;;;;;;;6.5;5.799999;;;;;;;11.1;77.1084;95959.72;;;;
2022/06/11 00:30:11;;;;;;;6.5;5.799999;;;;;;;11.1;77.1084;95959.72;;;;
2022/06/11 00:31:12;;;;;;;6.5;5.799999;;;;;;;11.1;77.1084;95959.72;;;;
2022/06/11 00:32:13;;;;;;;6.5;5.799999;;;;;;;11.1;77.1084;95959.72;;;;
2022/06/11 00:33:15;;;;;;;6.5;5.799999;;;;;;;11.1;77.1084;95959.72;;;;
2022/06/11 00:34:16;;;;;;;6.5;5.799999;;;;;;;11.1;77.1084;95959.72;;;;
2022/06/11 00:35:17;;;;;;;6.5;5.799999;;;;;;;11.1;77.1084;95959.72;;;;
2022/06/11 00:36:18;;;;;;;6.5;5.799999;;;;;;;11.1;77.1084;95959.72;;;;
2022/06/11 00:37:20;;;;;;;6.5;5.799999;;;;;;;11.1;77.1084;95959.72;;;;
2022/06/11 00:38:20;;;;;;;6.65;5.799999;;;;;;;11.07;77.37207;95958.91;;;;
2022/06/11 00:39:22;;;;;;;6.65;5.799999;;;;;;;11.07;77.37207;95958.91;;;;
2022/06/11 00:40:26;;;;;;;6.65;5.799999;;;;;;;11.07;77.37207;95958.91;;;;
2022/06/11 00:41:29;;;;;;;6.65;5.799999;;;;;;;11.07;77.37207;95958.91;;;;
2022/06/11 00:42:32;;;;;;;6.65;5.799999;;;;;;;11.07;77.37207;95958.91;;;;
2022/06/11 00:43:37;;;;;;;6.65;5.799999;;;;;;;11.07;77.37207;95958.91;;;;
2022/06/11 00:44:38;;;;;;;6.65;5.799999;;;;;;;11.07;77.37207;95958.91;;;;
2022/06/11 00:45:39;;;;;;;6.65;5.799999;;;;;;;11.07;77.37207;95958.91;;;;
2022/06/11 00:46:44;;;;;;;6.65;5.799999;;;;;;;11.07;77.37207;95958.91;;;;
2022/06/11 00:47:54;;;;;;;6.65;5.799999;;;;;;;11.07;77.37207;95958.91;;;;
2022/06/11 00:48:59;;;;;;;7.500001;5.7;;;;;;;10.94;77.54297;95953.05;;;;
2022/06/11 00:50:01;;;;;;;7.500001;5.7;;;;;;;10.94;77.54297;95953.05;;;;
2022/06/11 00:51:15;;;;;;;7.500001;5.7;;;;;;;10.94;77.54297;95953.05;;;;
2022/06/11 00:52:20;;;;;;;7.500001;5.7;;;;;;;10.94;77.54297;95953.05;;;;
2022/06/11 00:53:27;;;;;;;7.500001;5.7;;;;;;;10.94;77.54297;95953.05;;;;
2022/06/11 00:54:33;;;;;;;7.500001;5.7;;;;;;;10.94;77.54297;95953.05;;;;
2022/06/11 00:55:36;;;;;;;7.500001;5.7;;;;;;;10.94;77.54297;95953.05;;;;
2022/06/11 00:56:38;;;;;;;7.500001;5.7;;;;;;;10.94;77.54297;95953.05;;;;
2022/06/11 00:57:46;;;;;;;7.500001;5.7;;;;;;;10.94;77.54297;95953.05;;;;
2022/06/11 00:58:50;;;;;;;6.5;5.9;;;;;;;10.91;77.76172;95944.19;;;;
2022/06/11 00:59:54;;;;;;;6.5;5.9;;;;;;;10.91;77.76172;95944.19;;;;
2022/06/11 01:00:58;;;;;;;6.5;5.9;;;;;;;10.91;77.76172;95944.19;;;;
2022/06/11 01:02:00;;;;;;;6.5;5.9;;;;;;;10.91;77.76172;95944.19;;;;
2022/06/11 01:03:01;;;;;;;6.5;5.9;;;;;;;10.91;77.76172;95944.19;;;;
2022/06/11 01:04:02;;;;;;;6.5;5.9;;;;;;;10.91;77.76172;95944.19;;;;
2022/06/11 01:05:30;;;;;;;6.5;5.9;;;;;;;10.91;77.76172;95944.19;;;;
2022/06/11 01:06:35;;;;;;;6.5;5.9;;;;;;;10.91;77.76172;95944.19;;;;
2022/06/11 01:07:44;;;;;;;6.5;5.9;;;;;;;10.91;77.76172;95944.19;;;;
2022/06/11 01:09:02;;;;;;;6.5;5.9;;;;;;;10.91;77.76172;95944.19;;;;
2022/06/11 01:10:07;;;;;;;6.25;5.25;;;;;;;10.82;77.94043;95934.8;;;;
2022/06/11 01:11:20;;;;;;;6.25;5.25;;;;;;;10.82;77.94043;95934.8;;;;
2022/06/11 01:12:35;;;;;;;6.25;5.25;;;;;;;10.82;77.94043;95934.8;;;;
2022/06/11 01:13:45;;;;;;;6.25;5.25;;;;;;;10.82;77.94043;95934.8;;;;
2022/06/11 01:14:57;;;;;;;6.25;5.25;;;;;;;10.82;77.94043;95934.8;;;;
2022/06/11 01:16:05;;;;;;;6.25;5.25;;;;;;;10.82;77.94043;95934.8;;;;
2022/06/11 01:17:17;;;;;;;6.25;5.25;;;;;;;10.82;77.94043;95934.8;;;;
2022/06/11 01:18:25;;;;;;;6.25;5.25;;;;;;;10.82;77.94043;95934.8;;;;
2022/06/11 01:19:32;;;;;;;6.25;5.25;;;;;;;10.82;77.94043;95934.8;;;;
2022/06/11 01:21:02;;;;;;;6.749999;5.699999;;;;;;;10.79;78.10547;95929.08;;;;
2022/06/11 01:22:12;;;;;;;6.749999;5.699999;;;;;;;10.79;78.10547;95929.08;;;;
2022/06/11 01:23:33;;;;;;;6.749999;5.699999;;;;;;;10.79;78.10547;95929.08;;;;
2022/06/11 01:25:01;;;;;;;6.749999;5.699999;;;;;;;10.79;78.10547;95929.08;;;;
2022/06/11 01:26:15;;;;;;;6.749999;5.699999;;;;;;;10.79;78.10547;95929.08;;;;
2022/06/11 01:27:36;;;;;;;6.749999;5.699999;;;;;;;10.79;78.10547;95929.08;;;;
2022/06/11 01:28:53;;;;;;;6.749999;5.699999;;;;;;;10.79;78.10547;95929.08;;;;
2022/06/11 01:30:07;;;;;;;6.749999;5.699999;;;;;;;10.79;78.10547;95929.08;;;;
2022/06/11 01:31:12;;;;;;;6.149999;5.15;;;;;;;10.67;78.34375;95929.24;;;;
2022/06/11 01:32:21;;;;;;;6.149999;5.15;;;;;;;10.67;78.34375;95929.24;;;;
2022/06/11 01:33:32;;;;;;;6.149999;5.15;;;;;;;10.67;78.34375;95929.24;;;;
2022/06/11 01:34:43;;;;;;;6.149999;5.15;;;;;;;10.67;78.34375;95929.24;;;;
2022/06/11 01:35:51;;;;;;;6.149999;5.15;;;;;;;10.67;78.34375;95929.24;;;;
2022/06/11 01:37:00;;;;;;;6.149999;5.15;;;;;;;10.67;78.34375;95929.24;;;;
2022/06/11 01:38:07;;;;;;;6.149999;5.15;;;;;;;10.67;78.34375;95929.24;;;;
2022/06/11 01:39:20;;;;;;;6.149999;5.15;;;;;;;10.67;78.34375;95929.24;;;;
2022/06/11 01:40:28;;;;;;;6.149999;5.15;;;;;;;10.67;78.34375;95929.24;;;;
2022/06/11 01:41:36;;;;;;;6.050001;5.5;;;;;;;10.65;78.53418;95924.64;;;;
2022/06/11 01:42:44;;;;;;;6.050001;5.5;;;;;;;10.65;78.53418;95924.64;;;;
2022/06/11 01:43:50;;;;;;;6.050001;5.5;;;;;;;10.65;78.53418;95924.64;;;;
2022/06/11 01:44:55;;;;;;;6.050001;5.5;;;;;;;10.65;78.53418;95924.64;;;;
2022/06/11 01:46:03;;;;;;;6.050001;5.5;;;;;;;10.65;78.53418;95924.64;;;;
2022/06/11 01:47:06;;;;;;;6.050001;5.5;;;;;;;10.65;78.53418;95924.64;;;;
2022/06/11 01:48:10;;;;;;;6.050001;5.5;;;;;;;10.65;78.53418;95924.64;;;;
2022/06/11 01:49:16;;;;;;;6.050001;5.5;;;;;;;10.65;78.53418;95924.64;;;;
2022/06/11 01:50:38;;;;;;;6.050001;5.5;;;;;;;10.65;78.53418;95924.64;;;;
2022/06/11 01:51:52;;;;;;;6.050001;5.5;;;;;;;10.65;78.53418;95924.64;;;;
2022/06/11 01:53:05;;;;;;;8.05;5.799999;;;;;;;10.55;78.71973;95922.49;;;;
2022/06/11 01:54:35;;;;;;;8.05;5.799999;;;;;;;10.55;78.71973;95922.49;;;;
2022/06/11 01:55:46;;;;;;;8.05;5.799999;;;;;;;10.55;78.71973;95922.49;;;;
2022/06/11 01:57:02;;;;;;;8.05;5.799999;;;;;;;10.55;78.71973;95922.49;;;;
2022/06/11 01:58:20;;;;;;;8.05;5.799999;;;;;;;10.55;78.71973;95922.49;;;;
2022/06/11 01:59:35;;;;;;;8.05;5.799999;;;;;;;10.55;78.71973;95922.49;;;;
2022/06/11 02:00:54;;;;;;;8.05;5.799999;;;;;;;10.55;78.71973;95922.49;;;;
2022/06/11 02:02:02;;;;;;;8.05;5.799999;;;;;;;10.55;78.71973;95922.49;;;;
2022/06/11 02:03:16;;;;;;;7.050001;5.850001;;;;;;;10.52;78.85449;95923.25;;;;
2022/06/11 02:04:29;;;;;;;7.050001;5.850001;;;;;;;10.52;78.85449;95923.25;;;;
2022/06/11 02:05:41;;;;;;;7.050001;5.850001;;;;;;;10.52;78.85449;95923.25;;;;
2022/06/11 02:06:54;;;;;;;7.050001;5.850001;;;;;;;10.52;78.85449;95923.25;;;;
2022/06/11 02:08:02;;;;;;;7.050001;5.850001;;;;;;;10.52;78.85449;95923.25;;;;
2022/06/11 02:09:14;;;;;;;7.050001;5.850001;;;;;;;10.52;78.85449;95923.25;;;;
2022/06/11 02:10:25;;;;;;;7.050001;5.850001;;;;;;;10.52;78.85449;95923.25;;;;
2022/06/11 02:11:34;;;;;;;7.050001;5.850001;;;;;;;10.52;78.85449;95923.25;;;;
2022/06/11 02:12:38;;;;;;;7.050001;5.850001;;;;;;;10.52;78.85449;95923.25;;;;
2022/06/11 02:13:45;;;;;;;6.9;5.900001;;;;;;;10.43;79.01953;95920.06;;;;
2022/06/11 02:14:52;;;;;;;6.9;5.900001;;;;;;;10.43;79.01953;95920.06;;;;
2022/06/11 02:15:56;;;;;;;6.9;5.900001;;;;;;;10.43;79.01953;95920.06;;;;
2022/06/11 02:17:02;;;;;;;6.9;5.900001;;;;;;;10.43;79.01953;95920.06;;;;
2022/06/11 02:18:09;;;;;;;6.9;5.900001;;;;;;;10.43;79.01953;95920.06;;;;
2022/06/11 02:19:13;;;;;;;6.9;5.900001;;;;;;;10.43;79.01953;95920.06;;;;
2022/06/11 02:20:19;;;;;;;6.9;5.900001;;;;;;;10.43;79.01953;95920.06;;;;
2022/06/11 02:21:24;;;;;;;6.9;5.900001;;;;;;;10.43;79.01953;95920.06;;;;
2022/06/11 02:22:30;;;;;;;6.9;5.900001;;;;;;;10.43;79.01953;95920.06;;;;
2022/06/11 02:23:35;;;;;;;6.9;5.900001;;;;;;;10.43;79.01953;95920.06;;;;
2022/06/11 02:24:53;;;;;;;6.599999;5.950001;;;;;;;10.41;79.20996;95926.45;;;;
2022/06/11 02:25:59;;;;;;;6.599999;5.950001;;;;;;;10.41;79.20996;95926.45;;;;
2022/06/11 02:27:04;;;;;;;6.599999;5.950001;;;;;;;10.41;79.20996;95926.45;;;;
2022/06/11 02:28:11;;;;;;;6.599999;5.950001;;;;;;;10.41;79.20996;95926.45;;;;
2022/06/11 02:29:19;;;;;;;6.599999;5.950001;;;;;;;10.41;79.20996;95926.45;;;;
2022/06/11 02:30:23;;;;;;;6.599999;5.950001;;;;;;;10.41;79.20996;95926.45;;;;
2022/06/11 02:31:27;;;;;;;6.599999;5.950001;;;;;;;10.41;79.20996;95926.45;;;;
2022/06/11 02:32:32;;;;;;;6.599999;5.950001;;;;;;;10.41;79.20996;95926.45;;;;
2022/06/11 02:33:33;;;;;;;6.599999;5.950001;;;;;;;10.41;79.20996;95926.45;;;;
2022/06/11 02:34:35;;;;;;;6.599999;5.950001;;;;;;;10.41;79.20996;95926.45;;;;
2022/06/11 02:35:39;;;;;;;8.350001;5.8;;;;;;;10.34;79.41211;95933.51;;;;
2022/06/11 02:36:45;;;;;;;8.350001;5.8;;;;;;;10.34;79.41211;95933.51;;;;
2022/06/11 02:37:52;;;;;;;8.350001;5.8;;;;;;;10.34;79.41211;95933.51;;;;
2022/06/11 02:38:53;;;;;;;8.350001;5.8;;;;;;;10.34;79.41211;95933.51;;;;
2022/06/11 02:39:54;;;;;;;8.350001;5.8;;;;;;;10.34;79.41211;95933.51;;;;
2022/06/11 02:40:59;;;;;;;8.350001;5.8;;;;;;;10.34;79.41211;95933.51;;;;
2022/06/11 02:42:05;;;;;;;8.350001;5.8;;;;;;;10.34;79.41211;95933.51;;;;
2022/06/11 02:43:11;;;;;;;8.350001;5.8;;;;;;;10.34;79.41211;95933.51;;;;
2022/06/11 02:44:12;;;;;;;8.350001;5.8;;;;;;;10.34;79.41211;95933.51;;;;
2022/06/11 02:45:12;;;;;;;8.350001;5.8;;;;;;;10.34;79.41211;95933.51;;;;
2022/06/11 02:46:40;;;;;;;8.350001;5.8;;;;;;;10.34;79.41211;95933.51;;;;
2022/06/11 02:47:43;;;;;;;8.350001;5.8;;;;;;;10.34;79.41211;95933.51;;;;
2022/06/11 02:48:47;;;;;;;8.350001;5.8;;;;;;;10.34;79.41211;95933.51;;;;
2022/06/11 02:49:48;;;;;;;8.350001;5.8;;;;;;;10.34;79.41211;95933.51;;;;
2022/06/11 02:50:50;;;;;;;8.350001;5.8;;;;;;;10.34;79.41211;95933.51;;;;
2022/06/11 02:51:52;;;;;;;8.350001;5.8;;;;;;;10.34;79.41211;95933.51;;;;
2022/06/11 02:52:56;;;;;;;8.350001;5.8;;;;;;;10.34;79.41211;95933.51;;;;
2022/06/11 02:53:58;;;;;;;8.350001;5.8;;;;;;;10.34;79.41211;95933.51;;;;
2022/06/11 02:54:59;;;;;;;8.350001;5.8;;;;;;;10.34;79.41211;95933.51;;;;
2022/06/11 02:55:59;;;;;;;8.350001;5.8;;;;;;;10.34;79.41211;95933.51;;;;
2022/06/11 02:57:00;;;;;;;7.000001;6.1;;;;;;;10.35;79.84375;95951.51;;;;
2022/06/11 02:58:03;;;;;;;7.000001;6.1;;;;;;;10.35;79.84375;95951.51;;;;
2022/06/11 02:59:05;;;;;;;7.000001;6.1;;;;;;;10.35;79.84375;95951.51;;;;
2022/06/11 03:00:06;;;;;;;7.000001;6.1;;;;;;;10.35;79.84375;95951.51;;;;
2022/06/11 03:01:10;;;;;;;7.000001;6.1;;;;;;;10.35;79.84375;95951.51;;;;
2022/06/11 03:02:10;;;;;;;7.000001;6.1;;;;;;;10.35;79.84375;95951.51;;;;
2022/06/11 03:03:11;;;;;;;7.000001;6.1;;;;;;;10.35;79.84375;95951.51;;;;
2022/06/11 03:04:12;;;;;;;7.000001;6.1;;;;;;;10.35;79.84375;95951.51;;;;
2022/06/11 03:05:13;;;;;;;7.000001;6.1;;;;;;;10.35;79.84375;95951.51;;;;
2022/06/11 03:06:14;;;;;;;7.000001;6.1;;;;;;;10.35;79.84375;95951.51;;;;
2022/06/11 03:07:15;;;;;;;7.599999;6.4;;;;;;;10.39;79.97949;95962.83;;;;
2022/06/11 03:08:16;;;;;;;7.599999;6.4;;;;;;;10.39;79.97949;95962.83;;;;
2022/06/11 03:09:17;;;;;;;7.599999;6.4;;;;;;;10.39;79.97949;95962.83;;;;
2022/06/11 03:10:21;;;;;;;7.599999;6.4;;;;;;;10.39;79.97949;95962.83;;;;
2022/06/11 03:11:24;;;;;;;7.599999;6.4;;;;;;;10.39;79.97949;95962.83;;;;
2022/06/11 03:12:25;;;;;;;7.599999;6.4;;;;;;;10.39;79.97949;95962.83;;;;
2022/06/11 03:13:25;;;;;;;7.599999;6.4;;;;;;;10.39;79.97949;95962.83;;;;
2022/06/11 03:14:28;;;;;;;7.599999;6.4;;;;;;;10.39;79.97949;95962.83;;;;
2022/06/11 03:15:28;;;;;;;7.599999;6.4;;;;;;;10.39;79.97949;95962.83;;;;
2022/06/11 03:16:29;;;;;;;7.599999;6.4;;;;;;;10.39;79.97949;95962.83;;;;
2022/06/11 03:17:31;;;;;;;6.95;6.250001;;;;;;;10.35;80.1875;95975.22;;;;
2022/06/11 03:18:32;;;;;;;6.95;6.250001;;;;;;;10.35;80.1875;95975.22;;;;
2022/06/11 03:19:33;;;;;;;6.95;6.250001;;;;;;;10.35;80.1875;95975.22;;;;
2022/06/11 03:20:34;;;;;;;6.95;6.250001;;;;;;;10.35;80.1875;95975.22;;;;
2022/06/11 03:21:34;;;;;;;6.95;6.250001;;;;;;;10.35;80.1875;95975.22;;;;
2022/06/11 03:22:36;;;;;;;6.95;6.250001;;;;;;;10.35;80.1875;95975.22;;;;
2022/06/11 03:23:37;;;;;;;6.95;6.250001;;;;;;;10.35;80.1875;95975.22;;;;
2022/06/11 03:24:38;;;;;;;6.95;6.250001;;;;;;;10.35;80.1875;95975.22;;;;
2022/06/11 03:25:39;;;;;;;6.95;6.250001;;;;;;;10.35;80.1875;95975.22;;;;
2022/06/11 03:26:40;;;;;;;6.95;6.250001;;;;;;;10.35;80.1875;95975.22;;;;
2022/06/11 03:27:40;;;;;;;6.95;6.250001;;;;;;;10.35;80.1875;95975.22;;;;
2022/06/11 03:28:41;;;;;;;6.95;6.250001;;;;;;;10.35;80.1875;95975.22;;;;
2022/06/11 03:29:42;;;;;;;6.95;6.250001;;;;;;;10.35;80.1875;95975.22;;;;
2022/06/11 03:30:43;;;;;;;6.95;6.250001;;;;;;;10.35;80.1875;95975.22;;;;
2022/06/11 03:31:45;;;;;;;6.95;6.250001;;;;;;;10.35;80.1875;95975.22;;;;
2022/06/11 03:32:46;;;;;;;6.95;6.250001;;;;;;;10.35;80.1875;95975.22;;;;
2022/06/11 03:33:47;;;;;;;6.95;6.250001;;;;;;;10.35;80.1875;95975.22;;;;
2022/06/11 03:34:48;;;;;;;6.95;6.250001;;;;;;;10.35;80.1875;95975.22;;;;
2022/06/11 03:35:49;;;;;;;6.95;6.250001;;;;;;;10.35;80.1875;95975.22;;;;
2022/06/11 03:36:52;;;;;;;6.95;6.250001;;;;;;;10.35;80.1875;95975.22;;;;
2022/06/11 03:37:52;;;;;;;6.95;6.250001;;;;;;;10.35;80.1875;95975.22;;;;
2022/06/11 03:38:53;;;;;;;6.95;6.249999;;;;;;;10.35;80.47754;95976.12;;;;
2022/06/11 03:39:53;;;;;;;6.95;6.249999;;;;;;;10.35;80.47754;95976.12;;;;
2022/06/11 03:40:54;;;;;;;6.95;6.249999;;;;;;;10.35;80.47754;95976.12;;;;
2022/06/11 03:41:55;;;;;;;6.95;6.249999;;;;;;;10.35;80.47754;95976.12;;;;
2022/06/11 03:42:56;;;;;;;6.95;6.249999;;;;;;;10.35;80.47754;95976.12;;;;
2022/06/11 03:43:57;;;;;;;6.95;6.249999;;;;;;;10.35;80.47754;95976.12;;;;
2022/06/11 03:44:58;;;;;;;6.95;6.249999;;;;;;;10.35;80.47754;95976.12;;;;
2022/06/11 03:45:58;;;;;;;6.95;6.249999;;;;;;;10.35;80.47754;95976.12;;;;
2022/06/11 03:46:59;;;;;;;6.95;6.249999;;;;;;;10.35;80.47754;95976.12;;;;
2022/06/11 03:48:00;;;;;;;6.95;6.249999;;;;;;;10.35;80.47754;95976.12;;;;
2022/06/11 03:49:02;;;;;;;6.95;6.249999;;;;;;;10.35;80.47754;95976.12;;;;
2022/06/11 03:50:04;;;;;;;6.849999;6.150001;;;;;;;10.42;80.63086;95985.31;;;;
2022/06/11 03:51:07;;;;;;;6.849999;6.150001;;;;;;;10.42;80.63086;95985.31;;;;
2022/06/11 03:52:10;;;;;;;6.849999;6.150001;;;;;;;10.42;80.63086;95985.31;;;;
2022/06/11 03:53:10;;;;;;;6.849999;6.150001;;;;;;;10.42;80.63086;95985.31;;;;
2022/06/11 03:54:12;;;;;;;6.849999;6.150001;;;;;;;10.42;80.63086;95985.31;;;;
2022/06/11 03:55:14;;;;;;;6.849999;6.150001;;;;;;;10.42;80.63086;95985.31;;;;
2022/06/11 03:56:14;;;;;;;6.849999;6.150001;;;;;;;10.42;80.63086;95985.31;;;;
2022/06/11 03:57:16;;;;;;;6.849999;6.150001;;;;;;;10.42;80.63086;95985.31;;;;
2022/06/11 03:58:18;;;;;;;6.849999;6.150001;;;;;;;10.42;80.63086;95985.31;;;;
2022/06/11 03:59:19;;;;;;;6.849999;6.150001;;;;;;;10.42;80.63086;95985.31;;;;
2022/06/11 04:01:14;;;;;;;8.300001;6.15;;;;;;;10.45;80.72168;95995.53;;;;
2022/06/11 04:02:15;;;;;;;8.300001;6.15;;;;;;;10.45;80.72168;95995.53;;;;
2022/06/11 04:03:16;;;;;;;8.300001;6.15;;;;;;;10.45;80.72168;95995.53;;;;
2022/06/11 04:04:18;;;;;;;8.300001;6.15;;;;;;;10.45;80.72168;95995.53;;;;
2022/06/11 04:05:20;;;;;;;8.300001;6.15;;;;;;;10.45;80.72168;95995.53;;;;
2022/06/11 04:06:20;;;;;;;8.300001;6.15;;;;;;;10.45;80.72168;95995.53;;;;
2022/06/11 04:07:24;;;;;;;8.300001;6.15;;;;;;;10.45;80.72168;95995.53;;;;
2022/06/11 04:08:25;;;;;;;8.300001;6.15;;;;;;;10.45;80.72168;95995.53;;;;
2022/06/11 04:09:26;;;;;;;8.300001;6.15;;;;;;;10.45;80.72168;95995.53;;;;
2022/06/11 04:10:30;;;;;;;8.300001;6.15;;;;;;;10.45;80.72168;95995.53;;;;
2022/06/11 04:11:31;;;;;;;6.699999;6;;;;;;;10.57;80.89258;96001.06;;;;
2022/06/11 04:12:32;;;;;;;6.699999;6;;;;;;;10.57;80.89258;96001.06;;;;
2022/06/11 04:13:33;;;;;;;6.699999;6;;;;;;;10.57;80.89258;96001.06;;;;
2022/06/11 04:14:35;;;;;;;6.699999;6;;;;;;;10.57;80.89258;96001.06;;;;
2022/06/11 04:15:37;;;;;;;6.699999;6;;;;;;;10.57;80.89258;96001.06;;;;
2022/06/11 04:16:40;;;;;;;6.699999;6;;;;;;;10.57;80.89258;96001.06;;;;
2022/06/11 04:17:44;;;;;;;6.699999;6;;;;;;;10.57;80.89258;96001.06;;;;
2022/06/11 04:18:44;;;;;;;6.699999;6;;;;;;;10.57;80.89258;96001.06;;;;
2022/06/11 04:19:45;;;;;;;6.699999;6;;;;;;;10.57;80.89258;96001.06;;;;
2022/06/11 04:20:48;;;;;;;6.699999;6;;;;;;;10.57;80.89258;96001.06;;;;
2022/06/11 04:21:48;;;;;;;7.05;6.3;;;;;;;10.61;80.96387;96009.42;;;;
2022/06/11 04:22:51;;;;;;;7.05;6.3;;;;;;;10.61;80.96387;96009.42;;;;
2022/06/11 04:23:51;;;;;;;7.05;6.3;;;;;;;10.61;80.96387;96009.42;;;;
2022/06/11 04:24:55;;;;;;;7.05;6.3;;;;;;;10.61;80.96387;96009.42;;;;
2022/06/11 04:25:56;;;;;;;7.05;6.3;;;;;;;10.61;80.96387;96009.42;;;;
2022/06/11 04:26:58;;;;;;;7.05;6.3;;;;;;;10.61;80.96387;96009.42;;;;
2022/06/11 04:28:01;;;;;;;7.05;6.3;;;;;;;10.61;80.96387;96009.42;;;;
2022/06/11 04:29:02;;;;;;;7.05;6.3;;;;;;;10.61;80.96387;96009.42;;;;
2022/06/11 04:30:04;;;;;;;7.05;6.3;;;;;;;10.61;80.96387;96009.42;;;;
2022/06/11 04:31:06;;;;;;;7.05;6.3;;;;;;;10.61;80.96387;96009.42;;;;
2022/06/11 04:32:10;;;;;;;7.3;6.400001;;;;;;;10.76;81.10059;96006.99;;;;
2022/06/11 04:33:13;;;;;;;7.3;6.400001;;;;;;;10.76;81.10059;96006.99;;;;
2022/06/11 04:34:14;;;;;;;7.3;6.400001;;;;;;;10.76;81.10059;96006.99;;;;
2022/06/11 04:35:16;;;;;;;7.3;6.400001;;;;;;;10.76;81.10059;96006.99;;;;
2022/06/11 04:36:17;;;;;;;7.3;6.400001;;;;;;;10.76;81.10059;96006.99;;;;
2022/06/11 04:37:22;;;;;;;7.3;6.400001;;;;;;;10.76;81.10059;96006.99;;;;
2022/06/11 04:38:27;;;;;;;7.3;6.400001;;;;;;;10.76;81.10059;96006.99;;;;
2022/06/11 04:39:28;;;;;;;7.3;6.400001;;;;;;;10.76;81.10059;96006.99;;;;
2022/06/11 04:40:31;;;;;;;7.3;6.400001;;;;;;;10.76;81.10059;96006.99;;;;
2022/06/11 04:41:32;;;;;;;7.3;6.400001;;;;;;;10.76;81.10059;96006.99;;;;
2022/06/11 04:42:33;;;;;;;7.3;6.400001;;;;;;;10.76;81.10059;96006.99;;;;
2022/06/11 04:43:35;;;;;;;7.95;7.200001;;;;;;;10.95;81.22168;96021.23;;;;
2022/06/11 04:44:35;;;;;;;7.95;7.200001;;;;;;;10.95;81.22168;96021.23;;;;
2022/06/11 04:45:36;;;;;;;7.95;7.200001;;;;;;;10.95;81.22168;96021.23;;;;
2022/06/11 04:46:37;;;;;;;7.95;7.200001;;;;;;;10.95;81.22168;96021.23;;;;
2022/06/11 04:47:39;;;;;;;7.95;7.200001;;;;;;;10.95;81.22168;96021.23;;;;
2022/06/11 04:48:39;;;;;;;7.95;7.200001;;;;;;;10.95;81.22168;96021.23;;;;
2022/06/11 04:49:41;;;;;;;7.95;7.200001;;;;;;;10.95;81.22168;96021.23;;;;
2022/06/11 04:50:41;;;;;;;7.95;7.200001;;;;;;;10.95;81.22168;96021.23;;;;
2022/06/11 04:51:43;;;;;;;7.95;7.200001;;;;;;;10.95;81.22168;96021.23;;;;
2022/06/11 04:52:44;;;;;;;7.95;7.200001;;;;;;;10.95;81.22168;96021.23;;;;
2022/06/11 04:53:45;;;;;;;8.250001;6.6;;;;;;;11.36;81.38281;96012.45;;;;
2022/06/11 04:54:46;;;;;;;8.250001;6.6;;;;;;;11.36;81.38281;96012.45;;;;
2022/06/11 04:55:46;;;;;;;8.250001;6.6;;;;;;;11.36;81.38281;96012.45;;;;
2022/06/11 04:56:47;;;;;;;8.250001;6.6;;;;;;;11.36;81.38281;96012.45;;;;
2022/06/11 04:57:48;;;;;;;8.250001;6.6;;;;;;;11.36;81.38281;96012.45;;;;
2022/06/11 04:58:49;;;;;;;8.250001;6.6;;;;;;;11.36;81.38281;96012.45;;;;
2022/06/11 04:59:52;;;;;;;8.250001;6.6;;;;;;;11.36;81.38281;96012.45;;;;
2022/06/11 05:00:52;;;;;;;8.250001;6.6;;;;;;;11.36;81.38281;96012.45;;;;
2022/06/11 05:01:53;;;;;;;8.250001;6.6;;;;;;;11.36;81.38281;96012.45;;;;
2022/06/11 05:02:53;;;;;;;8.250001;6.6;;;;;;;11.36;81.38281;96012.45;;;;
2022/06/11 05:03:54;;;;;;;8.250001;6.6;;;;;;;11.36;81.38281;96012.45;;;;
2022/06/11 05:04:55;;;;;;;6.65;6.050001;;;;;;;11.77;81.29785;96014;;;;
2022/06/11 05:05:55;;;;;;;6.65;6.050001;;;;;;;11.77;81.29785;96014;;;;
2022/06/11 05:06:56;;;;;;;6.65;6.050001;;;;;;;11.77;81.29785;96014;;;;
2022/06/11 05:07:56;;;;;;;6.65;6.050001;;;;;;;11.77;81.29785;96014;;;;
2022/06/11 05:08:58;;;;;;;6.65;6.050001;;;;;;;11.77;81.29785;96014;;;;
2022/06/11 05:09:59;;;;;;;6.65;6.050001;;;;;;;11.77;81.29785;96014;;;;
2022/06/11 05:10:59;;;;;;;6.65;6.050001;;;;;;;11.77;81.29785;96014;;;;
2022/06/11 05:12:00;;;;;;;6.65;6.050001;;;;;;;11.77;81.29785;96014;;;;
2022/06/11 05:13:02;;;;;;;6.65;6.050001;;;;;;;11.77;81.29785;96014;;;;
2022/06/11 05:14:05;;;;;;;6.65;6.050001;;;;;;;11.77;81.29785;96014;;;;
2022/06/11 05:15:05;;;;;;;5.55;5.05;;;;;;;12.29;81.27441;96023.46;;;;
2022/06/11 05:16:07;;;;;;;5.55;5.05;;;;;;;12.29;81.27441;96023.46;;;;
2022/06/11 05:17:08;;;;;;;5.55;5.05;;;;;;;12.29;81.27441;96023.46;;;;
2022/06/11 05:18:08;;;;;;;5.55;5.05;;;;;;;12.29;81.27441;96023.46;;;;
2022/06/11 05:19:10;;;;;;;5.55;5.05;;;;;;;12.29;81.27441;96023.46;;;;
2022/06/11 05:20:12;;;;;;;5.55;5.05;;;;;;;12.29;81.27441;96023.46;;;;
2022/06/11 05:21:15;;;;;;;5.55;5.05;;;;;;;12.29;81.27441;96023.46;;;;
2022/06/11 05:22:16;;;;;;;5.55;5.05;;;;;;;12.29;81.27441;96023.46;;;;
2022/06/11 05:23:17;;;;;;;5.55;5.05;;;;;;;12.29;81.27441;96023.46;;;;
2022/06/11 05:24:19;;;;;;;5.55;5.05;;;;;;;12.29;81.27441;96023.46;;;;
2022/06/11 05:25:20;;;;;;;5.55;5.05;;;;;;;12.29;81.27441;96023.46;;;;
2022/06/11 05:26:20;;;;;;;5.800001;5;;;;;;;12.83;80.98633;96023.99;;;;
2022/06/11 05:27:24;;;;;;;5.800001;5;;;;;;;12.83;80.98633;96023.99;;;;
2022/06/11 05:28:26;;;;;;;5.800001;5;;;;;;;12.83;80.98633;96023.99;;;;
2022/06/11 05:29:31;;;;;;;5.800001;5;;;;;;;12.83;80.98633;96023.99;;;;
2022/06/11 05:30:35;;;;;;;5.800001;5;;;;;;;12.83;80.98633;96023.99;;;;
2022/06/11 05:31:35;;;;;;;5.800001;5;;;;;;;12.83;80.98633;96023.99;;;;
2022/06/11 05:32:37;;;;;;;5.800001;5;;;;;;;12.83;80.98633;96023.99;;;;
2022/06/11 05:33:38;;;;;;;5.800001;5;;;;;;;12.83;80.98633;96023.99;;;;
2022/06/11 05:34:38;;;;;;;5.800001;5;;;;;;;12.83;80.98633;96023.99;;;;
2022/06/11 05:35:39;;;;;;;5.800001;5;;;;;;;12.83;80.98633;96023.99;;;;
2022/06/11 05:36:40;;;;;;;5.550001;4.7;;;;;;;13.42;80.78223;96029.16;;;;
2022/06/11 05:37:41;;;;;;;5.550001;4.7;;;;;;;13.42;80.78223;96029.16;;;;
2022/06/11 05:38:41;;;;;;;5.550001;4.7;;;;;;;13.42;80.78223;96029.16;;;;
2022/06/11 05:39:42;;;;;;;5.550001;4.7;;;;;;;13.42;80.78223;96029.16;;;;
2022/06/11 05:40:45;;;;;;;5.550001;4.7;;;;;;;13.42;80.78223;96029.16;;;;
2022/06/11 05:41:47;;;;;;;5.550001;4.7;;;;;;;13.42;80.78223;96029.16;;;;
2022/06/11 05:42:48;;;;;;;5.550001;4.7;;;;;;;13.42;80.78223;96029.16;;;;
2022/06/11 05:43:49;;;;;;;5.550001;4.7;;;;;;;13.42;80.78223;96029.16;;;;
2022/06/11 05:44:49;;;;;;;5.550001;4.7;;;;;;;13.42;80.78223;96029.16;;;;
2022/06/11 05:45:51;;;;;;;5.550001;4.7;;;;;;;13.42;80.78223;96029.16;;;;
2022/06/11 05:46:55;;;;;;;5.799999;4.45;;;;;;;13.94;80.49902;96025.31;;;;
2022/06/11 05:47:56;;;;;;;5.799999;4.45;;;;;;;13.94;80.49902;96025.31;;;;